Time;durP1;ratioP1;P1;durP2;ratioP2;P2;SDS_P1;SDS_P2;PMS_P1;PMS_P2;Temp;Humidity;BMP_temperature;BMP_pressure;BME280_temperature;BME280_humidity;BME280_pressure;Samples;Min_cycle;Max_cycle;Signal;HPM_P1;HPM_P2
2021/03/04 00:01:10;;;;;;;38.60;28.17;;;9.50;92.30;;;;;;4990939;28;20456;-94
2021/03/04 00:03:39;;;;;;;36.97;30.23;;;9.50;92.40;;;;;;4994743;28;20453;-94
2021/03/04 00:06:07;;;;;;;40.50;34.07;;;9.60;92.30;;;;;;4997784;28;20491;-93
2021/03/04 00:08:36;;;;;;;40.17;31.90;;;9.60;92.20;;;;;;5001581;28;20432;-94
2021/03/04 00:11:07;;;;;;;43.20;32.10;;;9.60;92.30;;;;;;5000385;28;20464;-93
2021/03/04 00:13:35;;;;;;;34.60;30.80;;;9.60;92.30;;;;;;4998195;28;20507;-93
2021/03/04 00:16:05;;;;;;;44.67;32.10;;;9.60;92.40;;;;;;4999806;28;20479;-93
2021/03/04 00:18:34;;;;;;;42.13;32.17;;;9.50;92.40;;;;;;4999215;28;20460;-93
2021/03/04 00:21:03;;;;;;;36.93;31.67;;;9.50;92.40;;;;;;4992601;28;20550;-93
2021/03/04 00:23:30;;;;;;;43.70;31.13;;;9.50;92.40;;;;;;4990722;28;20475;-93
2021/03/04 00:26:02;;;;;;;46.07;33.90;;;9.60;92.30;;;;;;4988272;28;20483;-93
2021/03/04 00:28:33;;;;;;;37.87;31.63;;;9.60;92.30;;;;;;4981571;28;20456;-93
2021/03/04 00:31:00;;;;;;;41.63;31.87;;;9.40;92.50;;;;;;4988277;28;20456;-94
2021/03/04 00:33:29;;;;;;;39.67;31.43;;;9.30;92.70;;;;;;4992571;28;20475;-94
2021/03/04 00:35:57;;;;;;;36.50;31.80;;;9.30;92.90;;;;;;4999828;28;20464;-95
2021/03/04 00:38:24;;;;;;;35.40;30.00;;;9.30;93.00;;;;;;4999731;28;20444;-93
2021/03/04 00:40:50;;;;;;;44.83;30.60;;;9.30;93.10;;;;;;4992309;28;20456;-93
2021/03/04 00:43:18;;;;;;;42.00;32.40;;;9.30;93.20;;;;;;4999814;28;20441;-93
2021/03/04 00:45:49;;;;;;;38.47;31.33;;;9.30;93.30;;;;;;4999929;28;20471;-94
2021/03/04 00:48:16;;;;;;;39.60;32.50;;;9.30;93.30;;;;;;4995334;28;20457;-94
2021/03/04 00:50:43;;;;;;;41.53;31.83;;;9.30;93.00;;;;;;4993158;28;20455;-93
2021/03/04 00:53:11;;;;;;;40.07;31.37;;;9.30;92.80;;;;;;4992957;28;20479;-93
2021/03/04 00:55:40;;;;;;;41.80;31.23;;;9.30;93.00;;;;;;4996581;28;20467;-94
2021/03/04 00:58:11;;;;;;;39.60;31.80;;;9.30;93.00;;;;;;4998697;28;20424;-94
2021/03/04 01:00:40;;;;;;;45.60;31.77;;;9.20;93.00;;;;;;4991361;28;20459;-93
2021/03/04 01:03:13;;;;;;;41.47;30.83;;;9.10;93.20;;;;;;4987242;28;20467;-93
2021/03/04 01:05:42;;;;;;;36.37;31.07;;;9.20;92.60;;;;;;4987489;28;21013;-94
2021/03/04 01:08:18;;;;;;;36.73;30.07;;;9.30;92.70;;;;;;4987551;28;20476;-92
2021/03/04 01:10:50;;;;;;;40.67;29.50;;;9.30;92.50;;;;;;4985387;28;20460;-93
2021/03/04 01:13:17;;;;;;;37.30;31.23;;;9.20;92.50;;;;;;4998619;28;20440;-94
2021/03/04 01:15:44;;;;;;;36.00;28.00;;;9.30;92.40;;;;;;4999481;28;20476;-93
2021/03/04 01:18:12;;;;;;;37.73;29.70;;;9.30;92.60;;;;;;4994079;28;20471;-94
2021/03/04 01:20:41;;;;;;;37.27;27.07;;;9.30;92.60;;;;;;4999251;28;20452;-92
2021/03/04 01:23:10;;;;;;;42.47;27.83;;;9.20;92.40;;;;;;4998926;28;20440;-94
2021/03/04 01:25:37;;;;;;;35.83;28.77;;;9.20;92.50;;;;;;4999719;28;20499;-93
2021/03/04 01:28:04;;;;;;;40.27;27.80;;;9.20;92.50;;;;;;4996714;28;20449;-93
2021/03/04 01:30:35;;;;;;;35.13;27.73;;;9.20;92.60;;;;;;4998687;28;20459;-93
2021/03/04 01:33:04;;;;;;;36.93;29.33;;;9.10;92.80;;;;;;4990441;28;20483;-93
2021/03/04 01:35:32;;;;;;;42.90;30.00;;;9.10;92.70;;;;;;4999249;28;20475;-93
2021/03/04 01:38:03;;;;;;;34.03;26.63;;;9.10;92.80;;;;;;4999932;28;20475;-91
2021/03/04 01:40:29;;;;;;;32.20;26.80;;;9.20;92.90;;;;;;4991371;28;20500;-93
2021/03/04 01:42:58;;;;;;;38.77;27.97;;;9.10;92.90;;;;;;4999473;28;20471;-93
2021/03/04 01:45:25;;;;;;;31.30;25.80;;;9.10;92.80;;;;;;4998530;28;20467;-92
2021/03/04 01:47:54;;;;;;;32.30;27.40;;;9.10;92.80;;;;;;4990997;28;20527;-92
2021/03/04 01:50:22;;;;;;;35.60;28.33;;;9.10;92.80;;;;;;4996674;28;20448;-92
2021/03/04 01:52:49;;;;;;;53.93;31.30;;;9.10;92.80;;;;;;4999554;28;20456;-93
2021/03/04 01:55:18;;;;;;;31.13;25.57;;;9.10;93.00;;;;;;4998481;28;20484;-93
2021/03/04 01:57:46;;;;;;;33.50;27.40;;;9.00;93.10;;;;;;4998488;28;20515;-93
2021/03/04 02:00:16;;;;;;;37.53;29.47;;;9.00;93.10;;;;;;4993788;28;20452;-93
2021/03/04 02:03:19;;;;;;;39.40;28.07;;;8.90;93.20;;;;;;4992725;28;20459;-93
2021/03/04 02:05:46;;;;;;;38.03;27.47;;;8.80;93.50;;;;;;4989188;28;20524;-92
2021/03/04 02:08:20;;;;;;;40.67;28.23;;;8.90;93.20;;;;;;4998005;28;20436;-93
2021/03/04 02:10:50;;;;;;;31.33;25.77;;;9.00;93.20;;;;;;4992620;28;20475;-92
2021/03/04 02:13:27;;;;;;;33.93;26.97;;;8.90;93.40;;;;;;4990925;28;20448;-92
2021/03/04 02:15:59;;;;;;;31.93;24.97;;;9.00;93.20;;;;;;4993054;28;20487;-92
2021/03/04 02:18:31;;;;;;;29.73;23.53;;;8.90;93.10;;;;;;4999087;28;20444;-93
2021/03/04 02:21:24;;;;;;;29.40;23.03;;;9.00;92.70;;;;;;4992593;28;20467;-92
2021/03/04 02:24:23;;;;;;;40.00;29.30;;;8.90;92.40;;;;;;4987919;28;20459;-92
2021/03/04 02:27:04;;;;;;;36.73;28.63;;;8.60;93.50;;;;;;4991885;28;20491;-92
2021/03/04 02:29:38;;;;;;;38.47;28.97;;;8.60;94.50;;;;;;4986977;28;20466;-91
2021/03/04 02:32:09;;;;;;;36.53;28.97;;;8.60;94.50;;;;;;4998078;28;20466;-93
2021/03/04 02:34:43;;;;;;;38.27;28.80;;;8.60;94.00;;;;;;4993005;28;20538;-92
2021/03/04 02:37:11;;;;;;;35.93;29.93;;;8.50;94.20;;;;;;4988567;28;20490;-93
2021/03/04 02:39:41;;;;;;;34.60;28.03;;;8.50;94.30;;;;;;4983906;28;20492;-92
2021/03/04 02:42:12;;;;;;;38.60;28.83;;;8.50;94.40;;;;;;4989659;28;20493;-92
2021/03/04 02:44:47;;;;;;;36.60;29.20;;;8.40;94.70;;;;;;4997726;28;20452;-93
2021/03/04 02:47:17;;;;;;;42.77;29.40;;;8.50;94.80;;;;;;4997872;28;20467;-93
2021/03/04 02:49:46;;;;;;;36.83;29.63;;;8.50;94.80;;;;;;4997141;28;20450;-92
2021/03/04 02:52:13;;;;;;;35.00;30.60;;;8.40;94.90;;;;;;4994923;28;20451;-92
2021/03/04 02:54:41;;;;;;;40.27;30.20;;;8.40;95.00;;;;;;4991768;28;20463;-92
2021/03/04 02:57:12;;;;;;;34.90;28.63;;;8.40;95.20;;;;;;4995272;28;20456;-92
2021/03/04 02:59:41;;;;;;;35.53;28.80;;;8.40;95.20;;;;;;4993597;28;20463;-91
2021/03/04 03:02:15;;;;;;;36.13;30.60;;;8.60;95.30;;;;;;4991364;28;20447;-93
2021/03/04 03:04:47;;;;;;;38.37;29.00;;;8.60;95.20;;;;;;4997987;28;20447;-93
2021/03/04 03:07:16;;;;;;;41.77;30.40;;;8.60;95.20;;;;;;4997194;28;20484;-92
2021/03/04 03:09:47;;;;;;;35.63;28.30;;;8.70;95.20;;;;;;4992115;28;20456;-92
2021/03/04 03:12:20;;;;;;;35.20;28.60;;;8.70;94.90;;;;;;4996649;28;20514;-93
2021/03/04 03:14:48;;;;;;;36.37;30.20;;;8.70;95.00;;;;;;5001174;28;20483;-92
2021/03/04 03:17:15;;;;;;;43.00;29.90;;;8.60;95.00;;;;;;4999412;28;20487;-92
2021/03/04 03:19:44;;;;;;;41.10;29.33;;;8.70;95.10;;;;;;4995053;28;20902;-92
2021/03/04 03:22:10;;;;;;;44.50;30.37;;;8.70;95.20;;;;;;4994720;28;20455;-92
2021/03/04 03:24:40;;;;;;;40.07;29.83;;;8.60;95.30;;;;;;4988489;28;20456;-92
2021/03/04 03:27:07;;;;;;;37.27;29.27;;;8.60;95.40;;;;;;4992931;28;20495;-92
2021/03/04 03:29:34;;;;;;;48.10;31.30;;;8.60;95.30;;;;;;4990335;28;20448;-93
2021/03/04 03:32:04;;;;;;;37.03;28.73;;;8.60;95.30;;;;;;4986633;28;20467;-93
2021/03/04 03:34:31;;;;;;;33.60;28.83;;;8.50;95.40;;;;;;4985052;28;20555;-92
2021/03/04 03:36:58;;;;;;;41.07;28.80;;;8.50;95.50;;;;;;5001025;28;20464;-92
2021/03/04 03:39:52;;;;;;;43.90;30.00;;;8.40;95.50;;;;;;5000108;28;20451;-93
2021/03/04 03:42:20;;;;;;;37.97;28.00;;;8.40;95.60;;;;;;4998767;28;20483;-92
2021/03/04 03:44:48;;;;;;;40.60;28.60;;;8.40;95.50;;;;;;4987190;28;20471;-92
2021/03/04 03:47:18;;;;;;;39.67;29.07;;;8.40;95.60;;;;;;4994039;28;20475;-92
2021/03/04 03:49:47;;;;;;;34.93;26.33;;;8.40;95.60;;;;;;5001192;28;20436;-92
2021/03/04 03:52:14;;;;;;;41.37;29.07;;;8.30;95.60;;;;;;5000806;28;20443;-92
2021/03/04 03:54:43;;;;;;;41.23;27.47;;;8.40;95.60;;;;;;5000639;28;20550;-92
2021/03/04 03:57:14;;;;;;;37.23;27.27;;;8.40;95.50;;;;;;5096034;23;20655;-95
2021/03/04 03:59:46;;;;;;;32.87;27.37;;;8.40;95.20;;;;;;5041008;28;20434;-96
2021/03/04 04:02:19;;;;;;;39.33;26.03;;;8.40;95.20;;;;;;5040518;28;20446;-96
2021/03/04 04:04:46;;;;;;;37.93;28.50;;;8.40;95.30;;;;;;5039730;28;20513;-96
2021/03/04 04:07:15;;;;;;;40.57;25.90;;;8.40;95.30;;;;;;5049301;28;20469;-96
2021/03/04 04:09:42;;;;;;;36.03;25.57;;;8.30;95.20;;;;;;5059688;28;20452;-96
2021/03/04 04:12:12;;;;;;;32.50;26.73;;;8.30;95.30;;;;;;5052049;28;20435;-96
2021/03/04 04:14:41;;;;;;;28.40;25.47;;;8.30;95.40;;;;;;5039718;28;20464;-95
2021/03/04 04:17:14;;;;;;;30.57;24.10;;;8.20;95.30;;;;;;5045415;28;20488;-96
2021/03/04 04:19:43;;;;;;;34.10;25.47;;;8.20;95.30;;;;;;5045143;28;20459;-94
2021/03/04 04:22:10;;;;;;;36.33;25.20;;;8.20;95.20;;;;;;5058957;28;20433;-95
2021/03/04 04:24:44;;;;;;;36.60;25.43;;;8.20;95.30;;;;;;5041333;28;20458;-96
2021/03/04 04:27:19;;;;;;;35.80;28.63;;;8.20;95.50;;;;;;5019168;28;20455;-96
2021/03/04 04:29:46;;;;;;;33.90;28.27;;;8.20;95.60;;;;;;5019929;28;20438;-96
2021/03/04 04:32:14;;;;;;;40.13;30.30;;;8.20;95.70;;;;;;5020480;28;20432;-95
2021/03/04 04:34:46;;;;;;;40.53;28.80;;;8.20;95.70;;;;;;5019781;28;20522;-95
2021/03/04 04:37:12;;;;;;;45.23;32.00;;;8.20;95.70;;;;;;5020227;28;21328;-96
2021/03/04 04:39:46;;;;;;;36.73;28.87;;;8.10;95.70;;;;;;5020081;28;20431;-95
2021/03/04 04:42:13;;;;;;;43.07;27.73;;;8.10;95.80;;;;;;5019537;28;20443;-95
2021/03/04 04:44:40;;;;;;;33.43;29.27;;;8.00;96.00;;;;;;5019256;28;20458;-95
2021/03/04 04:47:06;;;;;;;38.27;27.73;;;8.00;96.10;;;;;;5034582;28;20445;-96
2021/03/04 04:49:35;;;;;;;35.03;27.47;;;8.00;96.20;;;;;;5039637;28;20493;-95
2021/03/04 04:52:03;;;;;;;39.53;26.20;;;7.90;96.10;;;;;;5039773;28;20453;-95
2021/03/04 04:54:33;;;;;;;36.73;26.40;;;8.00;96.00;;;;;;5039233;28;20461;-95
2021/03/04 04:56:59;;;;;;;39.73;29.13;;;7.90;96.00;;;;;;5038962;28;20477;-96
2021/03/04 04:59:28;;;;;;;35.50;26.73;;;7.90;96.10;;;;;;5038984;28;20430;-96
2021/03/04 05:01:55;;;;;;;36.93;26.50;;;7.80;96.30;;;;;;5038577;28;20442;-95
2021/03/04 05:04:24;;;;;;;46.27;30.53;;;7.80;96.50;;;;;;5038901;28;20501;-95
2021/03/04 05:06:54;;;;;;;29.43;25.13;;;7.80;96.50;;;;;;5176074;23;20471;-96
2021/03/04 05:09:30;;;;;;;39.50;27.80;;;7.80;96.30;;;;;;5020875;28;20463;-96
2021/03/04 05:12:00;;;;;;;36.30;26.63;;;7.80;96.40;;;;;;5020542;28;20427;-96
2021/03/04 05:14:31;;;;;;;31.00;27.23;;;7.80;96.20;;;;;;5020618;28;20474;-95
2021/03/04 05:16:58;;;;;;;38.03;28.10;;;7.90;96.20;;;;;;5020783;28;20420;-96
2021/03/04 05:19:25;;;;;;;37.17;27.50;;;7.90;96.20;;;;;;5020323;28;20446;-96
2021/03/04 05:21:52;;;;;;;38.03;26.90;;;7.90;95.90;;;;;;5020243;28;20427;-96
2021/03/04 05:24:24;;;;;;;47.70;28.27;;;7.90;95.80;;;;;;5010245;28;20428;-95
2021/03/04 05:26:54;;;;;;;36.80;28.70;;;7.90;96.00;;;;;;5019107;28;20430;-96
2021/03/04 05:29:26;;;;;;;36.53;26.67;;;7.90;96.00;;;;;;5039376;28;20422;-95
2021/03/04 05:31:59;;;;;;;37.97;26.87;;;7.90;96.00;;;;;;5039803;28;20418;-95
2021/03/04 05:34:27;;;;;;;34.87;27.10;;;7.90;96.10;;;;;;5028253;28;20550;-95
2021/03/04 05:39:47;;;;;;;37.60;28.97;;;7.90;96.30;;;;;;4996247;28;20447;-95
2021/03/04 05:42:19;;;;;;;36.07;26.77;;;7.90;96.30;;;;;;4999100;28;20439;-95
2021/03/04 05:44:59;;;;;;;39.70;28.40;;;7.90;96.30;;;;;;4998970;28;20511;-95
2021/03/04 05:47:32;;;;;;;34.73;27.07;;;7.90;96.30;;;;;;5017813;28;20453;-96
2021/03/04 05:50:12;;;;;;;35.90;25.60;;;7.80;96.40;;;;;;5017659;28;20641;-96
2021/03/04 05:52:48;;;;;;;39.13;25.87;;;7.70;96.60;;;;;;5200159;23;20517;-95
2021/03/04 05:55:35;;;;;;;40.03;28.00;;;7.60;96.90;;;;;;5038624;28;20472;-96
2021/03/04 05:58:19;;;;;;;39.30;27.37;;;7.50;97.30;;;;;;5021191;28;20427;-96
2021/03/04 06:00:48;;;;;;;42.30;26.53;;;7.50;97.40;;;;;;5019329;28;20420;-96
2021/03/04 06:03:24;;;;;;;39.60;27.00;;;7.40;97.60;;;;;;5018928;28;20443;-96
2021/03/04 06:05:51;;;;;;;50.20;29.17;;;7.50;97.70;;;;;;5019057;28;20415;-96
2021/03/04 06:08:22;;;;;;;39.53;28.93;;;7.50;97.50;;;;;;5019089;28;20427;-96
2021/03/04 06:10:56;;;;;;;38.73;29.10;;;7.40;97.60;;;;;;5019010;28;20411;-96
2021/03/04 06:13:28;;;;;;;41.00;28.57;;;7.40;98.00;;;;;;5018794;28;20486;-96
2021/03/04 06:16:00;;;;;;;40.13;27.80;;;7.40;98.20;;;;;;5018934;28;20451;-95
2021/03/04 06:18:39;;;;;;;39.60;28.60;;;7.40;98.20;;;;;;5020657;28;20466;-95
2021/03/04 06:21:29;;;;;;;37.67;26.30;;;7.40;98.30;;;;;;5026467;28;20429;-96
2021/03/04 06:24:07;;;;;;;36.97;26.10;;;7.40;98.30;;;;;;4999828;28;20413;-96
2021/03/04 06:26:59;;;;;;;40.70;25.77;;;7.50;98.30;;;;;;4999452;28;20483;-96
2021/03/04 06:29:40;;;;;;;45.00;28.60;;;7.50;98.10;;;;;;4999666;28;20395;-96
2021/03/04 06:32:12;;;;;;;36.83;26.80;;;7.40;98.20;;;;;;5016540;28;20434;-96
2021/03/04 06:34:41;;;;;;;33.03;26.40;;;7.40;98.30;;;;;;5018349;28;20443;-95
2021/03/04 06:42:27;;;;;;;35.90;27.77;;;7.60;97.90;;;;;;5289925;23;20476;-93
2021/03/04 06:45:04;;;;;;;44.27;27.57;;;7.60;98.00;;;;;;5010469;28;20432;-94
2021/03/04 06:47:37;;;;;;;39.33;27.17;;;7.70;98.00;;;;;;5171903;23;20474;-94
2021/03/04 06:50:23;;;;;;;39.37;25.97;;;7.70;98.00;;;;;;5022025;28;20423;-94
2021/03/04 08:03:20;;;;;;;47.77;27.20;;;11.00;90.40;;;;;;5019730;28;20458;-93
2021/03/04 08:05:50;;;;;;;34.00;25.77;;;11.20;88.00;;;;;;5020504;28;20447;-91
2021/03/04 08:08:23;;;;;;;32.17;24.73;;;11.20;86.40;;;;;;5020050;28;20439;-94
2021/03/04 08:11:07;;;;;;;36.70;27.10;;;11.20;85.00;;;;;;5020708;28;20443;-91
2021/03/04 08:13:44;;;;;;;38.87;24.43;;;11.20;85.20;;;;;;5019977;28;20459;-92
2021/03/04 08:16:19;;;;;;;28.97;21.73;;;11.40;84.10;;;;;;5014056;28;20506;-94
2021/03/04 08:19:02;;;;;;;24.90;18.60;;;11.50;82.80;;;;;;5020221;28;20431;-93
2021/03/04 08:21:31;;;;;;;23.13;17.73;;;11.80;80.90;;;;;;5011652;28;20525;-92
2021/03/04 08:24:01;;;;;;;25.13;17.43;;;12.20;77.80;;;;;;5020068;28;20502;-93
2021/03/04 08:26:36;;;;;;;23.97;16.67;;;12.70;76.00;;;;;;5019766;28;20439;-94
2021/03/04 08:29:14;;;;;;;23.47;18.57;;;13.30;73.80;;;;;;5017363;28;20542;-94
2021/03/04 08:31:48;;;;;;;22.40;17.90;;;13.80;70.70;;;;;;5017032;28;20475;-94
2021/03/04 08:38:08;;;;;;;21.87;17.20;;;14.20;68.90;;;;;;4999720;28;20440;-94
2021/03/04 09:03:48;;;;;;;15.67;13.53;;;17.80;52.60;;;;;;5003772;28;20483;-83
2021/03/04 09:06:16;;;;;;;20.20;14.37;;;17.60;53.40;;;;;;5001435;28;20981;-81
2021/03/04 09:08:44;;;;;;;21.47;14.73;;;17.30;53.10;;;;;;4996901;28;20434;-83
2021/03/04 09:11:25;;;;;;;19.13;14.17;;;16.90;54.60;;;;;;5005733;28;20456;-83
2021/03/04 09:50:18;;;;;;;14.17;9.10;;;19.10;46.20;;;;;;5848667;23;20486;-83
2021/03/04 09:52:45;;;;;;;14.63;9.20;;;19.00;47.10;;;;;;5030688;28;20453;-85
2021/03/04 09:55:15;;;;;;;12.47;9.03;;;19.60;47.00;;;;;;5027635;28;20475;-87
2021/03/04 09:57:43;;;;;;;12.90;10.20;;;20.30;46.50;;;;;;5037307;28;20508;-84
2021/03/04 10:00:23;;;;;;;17.43;10.10;;;21.50;45.70;;;;;;5033309;28;20472;-86
2021/03/04 10:02:51;;;;;;;19.73;10.73;;;22.00;43.80;;;;;;5022620;28;20484;-87
2021/03/04 10:05:19;;;;;;;12.50;10.10;;;22.80;43.50;;;;;;5027930;28;20476;-85
2021/03/04 10:07:46;;;;;;;12.43;9.60;;;23.20;42.90;;;;;;5034304;28;20476;-84
2021/03/04 13:29:53;;;;;;;12.23;7.00;;;21.50;37.60;;;;;;4982964;28;20556;-85
2021/03/04 13:32:21;;;;;;;13.67;6.60;;;21.30;37.90;;;;;;4987380;28;20452;-85
2021/03/04 13:34:47;;;;;;;15.90;6.83;;;20.90;38.30;;;;;;4984327;28;20515;-85
2021/03/04 13:37:16;;;;;;;12.50;6.10;;;20.70;38.80;;;;;;4982386;28;20442;-88
2021/03/04 13:39:43;;;;;;;10.10;5.77;;;20.40;38.90;;;;;;4998120;28;20481;-86
2021/03/04 13:42:10;;;;;;;12.37;5.90;;;20.00;38.90;;;;;;5001335;28;20453;-86
2021/03/04 13:44:36;;;;;;;11.13;5.80;;;19.80;39.60;;;;;;5007020;28;20503;-88
2021/03/04 13:47:03;;;;;;;12.57;6.60;;;19.60;39.60;;;;;;5016729;28;20445;-88
2021/03/04 13:49:34;;;;;;;8.00;5.90;;;19.50;40.30;;;;;;5018854;28;20483;-88
2021/03/04 13:52:01;;;;;;;15.00;5.60;;;19.30;40.30;;;;;;5013000;28;20429;-87
2021/03/04 13:54:27;;;;;;;13.87;6.20;;;19.20;40.60;;;;;;5014571;28;20437;-87
2021/03/04 13:56:53;;;;;;;15.20;5.63;;;19.10;40.60;;;;;;5036841;28;20432;-88
2021/03/04 13:59:20;;;;;;;10.33;7.00;;;18.90;40.90;;;;;;5017416;28;20495;-87
2021/03/04 14:01:46;;;;;;;15.50;5.70;;;18.80;41.10;;;;;;5008764;28;20456;-86
2021/03/04 14:04:13;;;;;;;12.27;5.80;;;18.60;40.90;;;;;;5001913;28;20441;-86
2021/03/04 14:06:39;;;;;;;15.13;5.83;;;18.60;41.30;;;;;;5004376;28;20443;-87
2021/03/04 14:09:06;;;;;;;8.90;5.00;;;18.50;41.80;;;;;;5004574;28;20469;-86
2021/03/04 14:11:32;;;;;;;12.30;5.53;;;18.50;41.40;;;;;;5004463;28;20453;-87
2021/03/04 14:13:58;;;;;;;13.73;6.43;;;18.40;41.60;;;;;;4996063;28;20439;-87
2021/03/04 14:16:25;;;;;;;8.97;5.97;;;18.30;42.00;;;;;;5005867;28;20486;-84
2021/03/04 14:18:51;;;;;;;12.07;6.70;;;18.10;42.30;;;;;;5008899;28;20467;-85
2021/03/04 14:21:18;;;;;;;12.47;6.40;;;18.00;42.60;;;;;;5002593;28;20526;-85
2021/03/04 14:23:44;;;;;;;14.10;6.23;;;17.90;42.90;;;;;;4995371;28;20491;-86
2021/03/04 14:26:11;;;;;;;16.97;6.83;;;17.80;43.40;;;;;;4993865;28;20444;-86
2021/03/04 17:03:59;;;;;;;13.73;6.20;;;14.10;54.90;;;;;;5020734;23;20497;-86
2021/03/04 17:06:25;;;;;;;10.60;5.60;;;14.10;55.40;;;;;;5000032;28;20445;-85
2021/03/04 17:08:52;;;;;;;11.87;6.40;;;14.00;55.70;;;;;;5048617;23;20487;-83
2021/03/04 17:11:18;;;;;;;10.80;6.20;;;13.90;56.00;;;;;;5024618;28;20456;-82
2021/03/04 17:13:44;;;;;;;9.30;7.47;;;13.90;56.40;;;;;;5031525;28;20456;-84
2021/03/04 17:16:10;;;;;;;15.63;6.67;;;13.80;56.60;;;;;;5025628;28;20494;-83
2021/03/04 17:18:36;;;;;;;10.20;5.83;;;13.80;56.90;;;;;;5041141;28;20469;-82
2021/03/04 17:21:04;;;;;;;11.50;7.03;;;13.80;57.00;;;;;;5039841;28;20459;-84
2021/03/04 17:26:21;;;;;;;11.13;7.10;;;13.80;57.10;;;;;;5316044;23;20579;-94
2021/03/04 17:28:47;;;;;;;14.33;7.20;;;13.80;57.20;;;;;;5039344;28;20462;-90
2021/03/04 17:43:36;;;;;;;16.30;7.70;;;13.80;57.50;;;;;;5220482;23;20499;-93
2021/03/04 18:12:47;;;;;;;14.33;8.87;;;13.80;57.90;;;;;;4927405;29;20448;-91
2021/03/04 18:15:14;;;;;;;13.13;8.90;;;13.70;57.90;;;;;;4958022;28;20982;-92
2021/03/04 18:17:40;;;;;;;20.43;10.00;;;13.70;58.30;;;;;;5015387;28;20443;-93
2021/03/04 18:20:08;;;;;;;17.47;10.57;;;13.70;58.30;;;;;;5017465;28;20446;-92
2021/03/04 18:22:34;;;;;;;12.10;9.23;;;13.60;58.10;;;;;;5014908;28;20564;-92
2021/03/04 18:25:01;;;;;;;15.20;9.27;;;13.60;58.90;;;;;;5012452;28;20468;-93
2021/03/04 18:27:28;;;;;;;16.03;9.17;;;13.60;58.60;;;;;;5013860;28;20503;-93
2021/03/04 18:29:55;;;;;;;24.93;14.17;;;13.50;59.20;;;;;;5014872;28;20501;-92
2021/03/04 18:32:22;;;;;;;42.87;25.67;;;13.50;58.70;;;;;;5016151;28;20455;-93
2021/03/04 18:34:49;;;;;;;14.70;10.70;;;13.50;59.00;;;;;;5013933;28;20498;-93
2021/03/04 18:37:30;;;;;;;18.93;11.47;;;13.40;58.90;;;;;;5014097;28;20431;-94
2021/03/04 18:42:37;;;;;;;15.80;10.47;;;13.40;59.30;;;;;;3996440;23;20549;-94
2021/03/04 18:45:10;;;;;;;14.47;9.27;;;13.30;59.50;;;;;;5044061;28;20470;-94
2021/03/04 18:47:45;;;;;;;22.73;12.30;;;13.30;60.00;;;;;;5053218;28;20465;-94
2021/03/04 18:50:28;;;;;;;17.33;12.50;;;13.30;60.10;;;;;;5046911;28;20450;-94
2021/03/04 18:53:02;;;;;;;16.90;10.87;;;13.30;60.50;;;;;;5017938;28;20509;-96
2021/03/04 18:58:22;;;;;;;25.57;17.50;;;13.30;61.00;;;;;;5038523;28;20484;-95
2021/03/04 19:01:06;;;;;;;19.00;14.60;;;13.20;61.20;;;;;;5039306;28;20443;-94
2021/03/04 19:03:42;;;;;;;14.53;7.30;;;13.20;62.50;;;;;;5013584;28;20533;-91
2021/03/04 19:06:14;;;;;;;19.73;8.30;;;12.90;71.20;;;;;;5036302;28;20517;-93
2021/03/04 19:08:43;;;;;;;7.80;6.27;;;12.30;80.20;;;;;;5038971;28;20465;-93
2021/03/04 19:14:05;;;;;;;6.87;6.27;;;11.50;87.80;;;;;;5013996;28;20537;-94
2021/03/04 19:16:34;;;;;;;9.60;6.47;;;11.30;90.30;;;;;;5023356;28;20454;-93
2021/03/04 19:19:37;;;;;;;6.27;5.67;;;11.20;91.10;;;;;;5048234;28;20499;-93
2021/03/04 19:30:24;;;;;;;13.17;10.60;;;10.80;95.50;;;;;;4747885;26;20495;-92
2021/03/04 19:32:51;;;;;;;8.77;7.63;;;10.70;96.40;;;;;;5036671;23;20553;-87
2021/03/04 19:35:19;;;;;;;9.60;8.70;;;10.70;97.00;;;;;;5021911;28;20477;-85
2021/03/04 19:37:45;;;;;;;9.13;6.77;;;10.60;97.60;;;;;;5027680;28;20579;-87
2021/03/04 19:40:13;;;;;;;7.63;6.50;;;10.70;97.70;;;;;;5028395;28;20419;-85
2021/03/04 19:42:40;;;;;;;7.80;6.17;;;10.60;97.70;;;;;;5022632;28;20459;-86
2021/03/04 19:45:08;;;;;;;9.00;7.07;;;10.60;98.10;;;;;;5013549;28;20904;-86
2021/03/04 19:47:37;;;;;;;8.50;6.53;;;10.60;97.80;;;;;;5012033;28;20446;-88
2021/03/04 19:50:07;;;;;;;7.87;6.50;;;10.50;97.70;;;;;;5008804;28;21024;-87
2021/03/04 19:52:33;;;;;;;7.53;6.80;;;10.50;97.90;;;;;;5005780;28;20459;-87
2021/03/04 19:54:59;;;;;;;6.73;6.10;;;10.50;98.00;;;;;;5005044;28;20537;-86
2021/03/04 19:57:25;;;;;;;7.10;5.00;;;10.50;98.00;;;;;;5003265;28;20447;-86
2021/03/04 19:59:52;;;;;;;8.53;7.70;;;10.60;98.10;;;;;;5005174;28;20447;-87
2021/03/04 20:02:18;;;;;;;8.07;5.93;;;10.60;98.10;;;;;;5005255;28;20459;-87
2021/03/04 20:04:44;;;;;;;10.67;7.07;;;10.60;98.10;;;;;;5013854;28;20443;-88
2021/03/04 20:07:11;;;;;;;6.93;5.77;;;10.60;98.00;;;;;;5013836;28;20435;-90
2021/03/04 20:09:38;;;;;;;8.57;6.73;;;10.60;98.30;;;;;;5016260;28;20725;-87
2021/03/04 20:12:34;;;;;;;10.03;9.03;;;10.70;97.90;;;;;;5014334;28;20467;-87
2021/03/04 20:15:01;;;;;;;7.10;6.40;;;10.70;97.50;;;;;;5003249;28;20506;-86
2021/03/04 20:17:27;;;;;;;8.30;6.17;;;10.70;97.20;;;;;;5011962;28;20482;-85
2021/03/04 20:19:54;;;;;;;18.83;11.80;;;10.70;96.90;;;;;;5013186;28;20458;-84
2021/03/04 20:22:21;;;;;;;10.77;8.77;;;10.70;96.90;;;;;;5005773;28;21029;-86
2021/03/04 20:24:47;;;;;;;7.30;5.37;;;10.70;96.90;;;;;;5006246;28;20430;-86
2021/03/04 20:27:13;;;;;;;6.33;5.70;;;10.60;97.10;;;;;;5015019;28;20434;-83
2021/03/04 20:29:40;;;;;;;5.97;5.37;;;10.60;96.90;;;;;;5005881;28;20950;-86
2021/03/04 20:32:07;;;;;;;5.73;5.23;;;10.60;96.80;;;;;;5011348;28;20542;-84
2021/03/04 20:34:35;;;;;;;6.60;5.57;;;10.60;96.60;;;;;;5011990;28;20451;-87
2021/03/04 20:37:01;;;;;;;6.53;5.83;;;10.70;96.50;;;;;;5004509;28;20484;-86
2021/03/04 20:39:29;;;;;;;6.13;5.07;;;10.70;96.10;;;;;;5012286;28;20459;-88
2021/03/04 20:41:55;;;;;;;8.60;6.30;;;10.70;96.30;;;;;;5014455;28;20458;-88
2021/03/04 20:44:22;;;;;;;5.73;4.87;;;10.60;96.30;;;;;;5015335;28;20474;-87
2021/03/04 20:46:49;;;;;;;6.37;5.33;;;10.60;96.20;;;;;;5010674;28;20510;-86
2021/03/04 20:49:16;;;;;;;9.43;7.17;;;10.60;96.40;;;;;;5008640;28;20474;-88
2021/03/04 20:51:42;;;;;;;11.77;10.47;;;10.60;96.70;;;;;;5006307;28;20459;-86
2021/03/04 20:54:09;;;;;;;8.27;6.13;;;10.60;96.90;;;;;;5006352;28;20439;-87
2021/03/04 20:56:36;;;;;;;7.60;6.17;;;10.50;97.10;;;;;;5005371;28;20510;-87
2021/03/04 20:59:04;;;;;;;6.63;5.70;;;10.50;97.30;;;;;;5001977;28;20495;-88
2021/03/04 21:01:30;;;;;;;7.00;5.60;;;10.50;97.70;;;;;;5011374;28;20460;-86
2021/03/04 21:03:57;;;;;;;10.43;7.17;;;10.40;98.30;;;;;;5009587;28;20443;-87
2021/03/04 21:06:24;;;;;;;22.47;13.77;;;10.40;98.80;;;;;;5007390;28;20474;-89
2021/03/04 21:08:50;;;;;;;15.47;10.23;;;10.20;99.30;;;;;;5008476;28;20427;-89
2021/03/04 21:11:16;;;;;;;10.73;8.03;;;10.20;99.70;;;;;;5007675;28;20456;-88
2021/03/04 21:13:46;;;;;;;8.90;7.00;;;10.20;99.90;;;;;;5004836;28;20475;-88
2021/03/04 21:16:12;;;;;;;5.77;5.03;;;10.20;99.90;;;;;;5001576;28;20478;-87
2021/03/04 21:18:39;;;;;;;7.50;6.50;;;10.10;99.90;;;;;;5001387;28;20582;-91
2021/03/04 21:21:06;;;;;;;7.10;4.97;;;10.10;99.90;;;;;;5000053;28;20448;-87
2021/03/04 21:23:32;;;;;;;8.90;7.50;;;10.10;99.90;;;;;;4996373;28;20454;-86
2021/03/04 21:25:59;;;;;;;9.90;6.20;;;10.20;99.90;;;;;;5008174;28;20473;-87
2021/03/04 21:28:28;;;;;;;7.23;6.47;;;10.20;99.90;;;;;;5003383;28;20459;-87
2021/03/04 21:30:55;;;;;;;6.33;4.90;;;10.20;99.90;;;;;;5000623;28;20463;-86
2021/03/04 21:33:22;;;;;;;6.30;5.70;;;10.20;99.90;;;;;;5006670;28;20570;-87
2021/03/04 21:35:48;;;;;;;7.27;6.00;;;10.20;99.90;;;;;;5001596;28;20859;-87
2021/03/04 21:38:15;;;;;;;8.87;6.63;;;10.20;99.90;;;;;;5002418;28;20473;-90
2021/03/04 21:40:41;;;;;;;6.13;5.40;;;10.20;99.90;;;;;;5008820;28;20423;-86
2021/03/04 21:43:08;;;;;;;6.20;5.40;;;10.20;99.90;;;;;;5011061;28;20454;-88
2021/03/04 21:45:34;;;;;;;6.53;5.80;;;10.10;99.90;;;;;;5007216;28;20431;-88
2021/03/04 21:48:01;;;;;;;8.60;5.60;;;10.10;99.90;;;;;;5016257;28;20948;-87
2021/03/04 21:50:30;;;;;;;7.60;6.00;;;10.00;99.90;;;;;;5016755;28;20443;-89
2021/03/04 21:52:56;;;;;;;11.63;8.80;;;10.00;99.90;;;;;;5016987;28;20471;-87
2021/03/04 21:55:24;;;;;;;10.60;7.70;;;9.90;99.90;;;;;;5018320;28;20505;-86
2021/03/04 21:58:15;;;;;;;6.70;6.07;;;9.80;99.90;;;;;;5052068;23;20579;-93
2021/03/04 22:00:51;;;;;;;10.80;7.40;;;9.70;99.90;;;;;;5026798;28;20731;-94
2021/03/04 22:03:32;;;;;;;8.47;7.10;;;9.60;99.90;;;;;;5029304;28;20438;-93
2021/03/04 22:06:28;;;;;;;8.93;6.40;;;9.60;99.90;;;;;;5507948;23;20487;-94
2021/03/04 22:09:16;;;;;;;7.33;6.53;;;9.60;99.90;;;;;;5001885;28;20439;-94